Flight Track Log - Related Links

Times and Time Zones

All times are in EDT time to prevent confusion due to time zone crossing. See the UAL3272 flight status page for this flight to view local times or setup timezone preferences in your user account.

Time Position Orientation Groundspeed Altitude Reporting Facility
EDT Latitude Longitude Course Direction KTS MPH feet Rate Location/Type
Mon 06:51:00 AM 43.6667 -79.5667 36° Northeast 170 196 1,500  Level Toronto Center
Mon 06:52:00 AM 43.7167 -79.5167 36° Northeast 200 230 4,300 2,600 Climbing Toronto Center
Mon 06:53:00 AM 43.7500 -79.4500 55° Northeast 260 299 6,700 1,300 Climbing Toronto Center
Mon 06:54:00 AM 43.7833 -79.3500 65° Northeast 280 322 6,900 1,350 Climbing Toronto Center
Mon 06:55:00 AM 43.7333 -79.2833 136° Southeast 280 322 9,400 2,500 Climbing Toronto Center
Mon 06:56:00 AM 43.6667 -79.3333 208° Southwest 290 334 11,900 2,250 Climbing Toronto Center
Mon 06:57:00 AM 43.5833 -79.3833 203° Southwest 320 368 13,900 1,500 Climbing Toronto Center
Mon 06:58:00 AM 43.4833 -79.4333 200° South 360 414 14,900 550 Climbing Toronto Center
Mon 06:59:00 AM 43.3833 -79.5000 206° Southwest 380 437 15,000 50 Climbing Toronto Center
Mon 07:00:00 AM 43.2833 -79.5333 194° South 380 437 15,000 500 Level Toronto Center
Mon 07:01:00 AM 43.1833 -79.6167 211° Southwest 400 460 16,000 1,400 Climbing Toronto Center
Mon 07:02:00 AM 43.0833 -79.6500 194° South 400 460 17,800 1,000 Climbing Toronto Center
Mon 07:03:00 AM 42.9667 -79.7167 203° Southwest 400 460 18,000 100 Climbing Toronto Center
Mon 07:04:00 AM 42.8833 -79.8000 216° Southwest 410 472 18,000  Level Toronto Center
Mon 07:04:32 AM 42.8475 -79.8525 227° Southwest 408 470 18,000  Level Cleveland Center
Mon 07:05:32 AM 42.7586 -79.9442 217° Southwest 400 460 18,000  Level Cleveland Center
Mon 07:06:32 AM 42.6550 -80.0439 215° Southwest 413 475 18,000  Level Cleveland Center
Mon 07:07:32 AM 42.5678 -80.1350 218° Southwest 407 468 18,000  Level Cleveland Center
Mon 07:08:32 AM 42.4783 -80.2228 216° Southwest 407 468 18,000  Level Cleveland Center
Mon 07:09:32 AM 42.4014 -80.3047 218° Southwest 401 461 18,000  Level Cleveland Center
Mon 07:10:32 AM 42.3142 -80.3894 216° Southwest 401 461 18,000  Level Cleveland Center
Mon 07:11:32 AM 42.2267 -80.4739 216° Southwest 401 461 18,000  Level Cleveland Center
Mon 07:12:32 AM 42.1414 -80.5553 215° Southwest 396 456 18,000  Level Cleveland Center
Mon 07:13:32 AM 42.0581 -80.6392 217° Southwest 384 442 18,000 -400 Level Cleveland Center
Mon 07:14:32 AM 41.9725 -80.7228 216° Southwest 384 442 17,200 -900 Descending Cleveland Center
Mon 07:15:32 AM 41.8806 -80.8119 216° Southwest 384 442 16,200 -1,050 Descending Cleveland Center
Mon 07:16:32 AM 41.7992 -80.8922 216° Southwest 384 442 15,100 -1,169 Descending Cleveland Center
Mon 07:16:49 AM 41.7761 -80.9172 219° Southwest 365 420 14,700 -1,333 Descending Cleveland Center
Mon 07:17:26 AM 41.7322 -80.9589 215° Southwest 354 407 13,900 -1,154 Descending Cleveland Center
Mon 07:18:33 AM 41.6422 -81.0444 215° Southwest 339 390 12,700 -985 Descending Cleveland Center
Mon 07:18:33 AM 41.6422 -81.0444 215° Southwest 352 405 12,800 -1,831 Climbing Cleveland Center
Mon 07:19:32 AM 41.5669 -81.1161 215° Southwest 346 398 10,900 -1,412 Descending Cleveland Center
Mon 07:20:32 AM 41.5392 -81.2211 251° West 312 359 10,000 -900 Descending Cleveland Center
Mon 07:21:32 AM 41.5303 -81.3181 263° West 278 320 9,100 -1,040 Descending Cleveland Center
Mon 07:21:47 AM 41.5281 -81.3431 263° West 241 277 8,700 -1,900 Descending Cleveland Center
Mon 07:22:32 AM 41.5214 -81.4094 262° West 258 297 7,200 -2,000 Descending Cleveland Center
Mon 07:22:47 AM 41.5192 -81.4317 262° West 244 281 6,700 -1,600 Descending Cleveland Center
Mon 07:23:32 AM 41.5122 -81.4983 262° West 253 291 5,600 -1,343 Descending Cleveland Center
Mon 07:23:54 AM 41.5100 -81.5314 265° West 242 278 5,200 -1,200 Descending Cleveland Center
Mon 07:24:32 AM 41.5053 -81.5869 264° West 248 285 4,400 -1,200 Descending Cleveland Center
Mon 07:24:54 AM 41.5008 -81.6256 261° West 244 281 4,000 -900 Descending Cleveland Center
Mon 07:25:32 AM 41.4961 -81.6725 262° West 241 277 3,500 -689 Descending Cleveland Center
Mon 07:25:55 AM 41.4939 -81.7003 264° West 198 228 3,300 -600 Descending Cleveland Center
Mon 07:26:32 AM 41.4831 -81.7389 249° West 202 232 2,900 -689 Descending Cleveland Center
Mon 07:26:56 AM 41.4725 -81.7553 229° Southwest 156 180 2,600 -769 Descending Cleveland Center
Mon 07:27:50 AM 41.4492 -81.7881 226° Southwest 125 144 1,900 -730 Descending Cleveland Center
Mon 07:28:51 AM 41.4236 -81.8264 228° Southwest 136 157 1,200 -689 Descending Cleveland Center
Mon 07:30:00 AM 41.4000 -81.8500 252° West  Level FlightAware Approximate
Mon 07:37:00 AM 41.4094 -81.8547 252° West  Level Estimated

Login

Don't have an account? Register now (free) for customized features, flight alerts, and more!